Terminal Aerodrome Forecast
Issued by NWS

Home | Current Version | Previous Version | Text Only | Print | Product List | Glossary On
Versions: 1 2 3 4 5 6 7 8 9 10 11 12 13 14 15 16 17 18 19 20 21 22 23 24 25 26 27 28 29 30 31
000
FTUS44 KFWD 291859 AAA
TAFAFW
TAF AMD
KAFW 291859Z 2919/3018 VRB05KT P6SM SCT050
     FM292000 18008KT P6SM SCT070
     FM292100 18008KT P6SM VCTS SCT070CB
     FM300100 19008KT P6SM SCT070=

USA.gov is the U.S. government's official web portal to all federal, state and local government web resources and services.